DTTX/SFA METAR and TAF weather

Enter ICAO airport designator
Station Type Date Time Source
DTTX METAR 2024/06/14 23:00 UTC NOAA

DTTX 142300Z 23003KT CAVOK 21/17 Q1018


Station Type Date Time Source
DTTX Decoded METAR 2024/06/14 23:00 UTC NOAA

Sfax El-Maou, Tunisia (DTTX) 34-43N 010-41E 23M
Jun 14, 2024 - 07:00 PM EDT / 2024.06.14 2300 UTC
Wind: from the SW (230 degrees) at 3 MPH (3 KT):0
Visibility: greater than 7 mile(s):0
Temperature: 69 F (21 C)
Dew Point: 62 F (17 C)
Relative Humidity: 77%
Pressure (altimeter): 30.06 in. Hg (1018 hPa)
ob: DTTX 142300Z 23003KT CAVOK 21/17 Q1018
cycle: 23

Station Type Date Time Source
DTTX TAF 2024/06/14 18:24 UTC NOAA